Surface observations / UK / EGOM

Quebec | Canada | USA | France | UK | Europe | Elsewhere

Display: Info & Location for EGOM | Help decoding METAR


Raw surface observations for station EGOM
EGOM 220850Z AUTO 27018KT 3100 DZ ///////// 08/08 Q1003=
EGOM 220750Z AUTO 27022KT 1100 +RA ///////// 08/08 Q1003=
EGOM 220650Z AUTO 24030G40KT 9999 -DZ ///////// 10/10 Q1002=
EGOM 220550Z AUTO 24030G47KT 3500 -RA ///////// 10/10 Q1002=
EGOM 220450Z AUTO 24031G41KT 9999 ///////// 10/10 Q1002 RERA=
EGOM 220350Z AUTO 24030G40KT 7000 -RA ///////// 10/10 Q1002=
EGOM 220250Z AUTO 24029G41KT 4500 SHRA ///////// 10/10 Q1003=
EGOM 220150Z AUTO 24029G43KT 9999 -RA ///////// 10/10 Q1004=
EGOM 220050Z AUTO 24030G43KT 9999 -RA ///////// 10/10 Q1005=
EGOM 212350Z AUTO 24032G47KT 9999 -SHRA ///////// 10/10 Q1005=
EGOM 212250Z AUTO 24031G47KT 9999 ///////// 10/10 Q1006 RERA=
EGOM 212150Z AUTO 24029G43KT 9999 -RA ///////// 10/10 Q1006=
EGOM 212050Z AUTO 24032G42KT 9999 -RADZ ///////// 10/10 Q1006=
EGOM 211950Z AUTO 24028G39KT 9999 ///////// 10/10 Q1007 RERA=
EGOM 211850Z AUTO 23027G37KT 9999 ///////// 10/10 Q1007 RERA=
EGOM 211750Z AUTO 24029KT 9999 ///////// 09/09 Q1007 RERA=
EGOM 211650Z AUTO 24032G43KT 5000 BR ///////// 09/09 Q1007 REDZ=
EGOM 211550Z AUTO 23027G39KT 7000 -DZ ///////// 09/09 Q1008=
EGOM 211450Z AUTO 24029G39KT 5000 BR ///////// 09/09 Q1009 REDZ=
EGOM 211350Z AUTO 25029G41KT 1700 -DZ ///////// 08/08 Q1010=
EGOM 211250Z AUTO 25030G42KT 0550 -RA OVC002/// 08/08 Q1011=
EGOM 211150Z AUTO 24028KT 2900 -RA OVC002/// 08/08 Q1011=
EGOM 211050Z AUTO 24023G33KT 3900 RA OVC002/// 07/07 Q1013=
EGOM 210950Z AUTO 24023G35KT 5000 -DZ OVC003/// 07/07 Q1013=
EGOM 210850Z AUTO 24025G36KT 6000 -RA OVC001/// 06/06 Q1014=